sensor_id;sensor_type;location;lat;lon;timestamp;temperature;humidity
40660;DHT22;26753;45.544;9.232;2024-01-15T10:53:44;9.20;99.90
40660;DHT22;26753;45.544;9.232;2024-01-15T10:58:41;10.30;99.90
40660;DHT22;26753;45.544;9.232;2024-01-15T11:03:34;11.10;99.90
40660;DHT22;26753;45.544;9.232;2024-01-15T11:10:52;13.20;99.90
40660;DHT22;26753;45.544;9.232;2024-01-15T11:15:56;11.60;99.90
40660;DHT22;26753;45.544;9.232;2024-01-15T11:18:23;11.50;99.90
40660;DHT22;26753;45.544;9.232;2024-01-15T11:23:50;14.00;99.90
40660;DHT22;26753;45.544;9.232;2024-01-15T11:26:46;11.30;99.90
40660;DHT22;26753;45.544;9.232;2024-01-15T11:32:02;12.50;99.90
40660;DHT22;26753;45.544;9.232;2024-01-15T11:35:01;12.30;99.90
40660;DHT22;26753;45.544;9.232;2024-01-15T11:45:24;13.20;99.90
40660;DHT22;26753;45.544;9.232;2024-01-15T11:50:49;11.00;99.90
40660;DHT22;26753;45.544;9.232;2024-01-15T11:53:36;10.90;99.90
40660;DHT22;26753;45.544;9.232;2024-01-15T11:56:03;12.40;99.90
40660;DHT22;26753;45.544;9.232;2024-01-15T11:58:32;14.00;99.90
40660;DHT22;26753;45.544;9.232;2024-01-15T12:00:58;14.50;99.90
40660;DHT22;26753;45.544;9.232;2024-01-15T12:03:24;10.70;99.90
40660;DHT22;26753;45.544;9.232;2024-01-15T12:05:55;11.50;99.90
40660;DHT22;26753;45.544;9.232;2024-01-15T12:08:22;14.50;99.90
40660;DHT22;26753;45.544;9.232;2024-01-15T12:13:22;13.60;99.90
40660;DHT22;26753;45.544;9.232;2024-01-15T12:18:16;14.20;99.90
40660;DHT22;26753;45.544;9.232;2024-01-15T12:20:43;14.40;99.90
40660;DHT22;26753;45.544;9.232;2024-01-15T12:23:09;14.80;99.90
40660;DHT22;26753;45.544;9.232;2024-01-15T12:25:39;14.40;99.90
40660;DHT22;26753;45.544;9.232;2024-01-15T12:28:05;14.20;99.90
40660;DHT22;26753;45.544;9.232;2024-01-15T12:30:42;16.60;99.90
40660;DHT22;26753;45.544;9.232;2024-01-15T12:33:56;19.90;94.10
40660;DHT22;26753;45.544;9.232;2024-01-15T12:36:22;19.00;91.90
40660;DHT22;26753;45.544;9.232;2024-01-15T12:39:02;17.20;92.30
40660;DHT22;26753;45.544;9.232;2024-01-15T12:41:37;16.30;94.00
40660;DHT22;26753;45.544;9.232;2024-01-15T12:44:15;15.70;94.90
40660;DHT22;26753;45.544;9.232;2024-01-15T12:46:44;15.70;95.20
40660;DHT22;26753;45.544;9.232;2024-01-15T12:49:23;19.00;93.40
40660;DHT22;26753;45.544;9.232;2024-01-15T12:52:09;25.20;81.70
40660;DHT22;26753;45.544;9.232;2024-01-15T12:54:35;28.60;64.50
40660;DHT22;26753;45.544;9.232;2024-01-15T12:57:36;30.80;60.60
40660;DHT22;26753;45.544;9.232;2024-01-15T13:00:12;33.00;52.70
40660;DHT22;26753;45.544;9.232;2024-01-15T13:02:42;34.20;50.30
40660;DHT22;26753;45.544;9.232;2024-01-15T13:05:12;33.70;47.60
40660;DHT22;26753;45.544;9.232;2024-01-15T13:07:41;34.90;47.60
40660;DHT22;26753;45.544;9.232;2024-01-15T13:10:11;35.60;44.10
40660;DHT22;26753;45.544;9.232;2024-01-15T13:12:40;36.00;44.90
40660;DHT22;26753;45.544;9.232;2024-01-15T13:15:06;34.90;43.40
40660;DHT22;26753;45.544;9.232;2024-01-15T13:17:40;35.30;44.10
40660;DHT22;26753;45.544;9.232;2024-01-15T13:20:07;34.60;43.40
40660;DHT22;26753;45.544;9.232;2024-01-15T13:22:34;34.00;43.00
40660;DHT22;26753;45.544;9.232;2024-01-15T13:25:00;34.20;43.30
40660;DHT22;26753;45.544;9.232;2024-01-15T13:27:26;34.60;43.10
40660;DHT22;26753;45.544;9.232;2024-01-15T13:29:57;33.50;41.90
40660;DHT22;26753;45.544;9.232;2024-01-15T13:32:27;32.40;42.20
40660;DHT22;26753;45.544;9.232;2024-01-15T13:34:55;33.50;42.50
40660;DHT22;26753;45.544;9.232;2024-01-15T13:37:21;33.50;42.40
40660;DHT22;26753;45.544;9.232;2024-01-15T13:39:47;33.80;41.90
40660;DHT22;26753;45.544;9.232;2024-01-15T13:42:13;33.60;41.50
40660;DHT22;26753;45.544;9.232;2024-01-15T13:44:38;34.50;41.70
40660;DHT22;26753;45.544;9.232;2024-01-15T13:47:04;34.40;41.40
40660;DHT22;26753;45.544;9.232;2024-01-15T13:49:31;34.80;40.80
40660;DHT22;26753;45.544;9.232;2024-01-15T13:51:56;34.00;41.20
40660;DHT22;26753;45.544;9.232;2024-01-15T13:54:22;34.30;41.80
40660;DHT22;26753;45.544;9.232;2024-01-15T13:56:48;35.30;41.60
40660;DHT22;26753;45.544;9.232;2024-01-15T13:59:15;35.50;40.60
40660;DHT22;26753;45.544;9.232;2024-01-15T14:01:44;35.80;40.60
40660;DHT22;26753;45.544;9.232;2024-01-15T14:04:11;36.10;39.90
40660;DHT22;26753;45.544;9.232;2024-01-15T14:06:39;36.40;40.10
40660;DHT22;26753;45.544;9.232;2024-01-15T14:09:14;37.00;40.10
40660;DHT22;26753;45.544;9.232;2024-01-15T14:11:46;37.40;39.60
40660;DHT22;26753;45.544;9.232;2024-01-15T14:14:15;37.80;38.90
40660;DHT22;26753;45.544;9.232;2024-01-15T14:16:42;37.50;38.40
40660;DHT22;26753;45.544;9.232;2024-01-15T14:19:08;37.80;38.90
40660;DHT22;26753;45.544;9.232;2024-01-15T14:21:35;37.80;38.70
40660;DHT22;26753;45.544;9.232;2024-01-15T14:24:01;37.50;38.50
40660;DHT22;26753;45.544;9.232;2024-01-15T14:26:27;37.70;38.40
40660;DHT22;26753;45.544;9.232;2024-01-15T14:28:55;38.00;38.20
40660;DHT22;26753;45.544;9.232;2024-01-15T14:31:24;37.80;37.60
40660;DHT22;26753;45.544;9.232;2024-01-15T14:33:52;37.20;37.90
40660;DHT22;26753;45.544;9.232;2024-01-15T14:36:33;37.30;38.00
40660;DHT22;26753;45.544;9.232;2024-01-15T14:39:13;37.40;37.80
40660;DHT22;26753;45.544;9.232;2024-01-15T14:41:52;37.00;37.80
40660;DHT22;26753;45.544;9.232;2024-01-15T14:44:18;37.00;37.60
40660;DHT22;26753;45.544;9.232;2024-01-15T14:46:51;36.10;37.60
40660;DHT22;26753;45.544;9.232;2024-01-15T14:49:17;35.40;38.20
40660;DHT22;26753;45.544;9.232;2024-01-15T14:51:46;35.50;38.60
40660;DHT22;26753;45.544;9.232;2024-01-15T14:54:15;36.00;38.20
40660;DHT22;26753;45.544;9.232;2024-01-15T14:56:41;36.10;38.10
40660;DHT22;26753;45.544;9.232;2024-01-15T14:59:08;37.10;38.20
40660;DHT22;26753;45.544;9.232;2024-01-15T15:01:34;36.60;38.00
40660;DHT22;26753;45.544;9.232;2024-01-15T15:04:00;36.10;37.90
40660;DHT22;26753;45.544;9.232;2024-01-15T15:06:32;35.10;37.70
40660;DHT22;26753;45.544;9.232;2024-01-15T15:08:58;34.20;38.10
40660;DHT22;26753;45.544;9.232;2024-01-15T15:11:35;33.80;38.60
40660;DHT22;26753;45.544;9.232;2024-01-15T15:14:05;33.30;39.10
40660;DHT22;26753;45.544;9.232;2024-01-15T15:16:34;33.10;39.80
40660;DHT22;26753;45.544;9.232;2024-01-15T15:19:08;32.90;39.20
40660;DHT22;26753;45.544;9.232;2024-01-15T15:21:42;32.60;39.50
40660;DHT22;26753;45.544;9.232;2024-01-15T15:24:08;31.90;39.60
40660;DHT22;26753;45.544;9.232;2024-01-15T15:26:35;30.90;40.00
40660;DHT22;26753;45.544;9.232;2024-01-15T15:29:02;27.40;41.40
40660;DHT22;26753;45.544;9.232;2024-01-15T15:31:27;24.80;43.90
40660;DHT22;26753;45.544;9.232;2024-01-15T15:33:53;23.00;46.50
40660;DHT22;26753;45.544;9.232;2024-01-15T15:36:19;21.30;48.90
40660;DHT22;26753;45.544;9.232;2024-01-15T15:38:45;20.00;51.10
40660;DHT22;26753;45.544;9.232;2024-01-15T15:41:14;18.80;53.30
40660;DHT22;26753;45.544;9.232;2024-01-15T15:43:40;17.90;54.90
40660;DHT22;26753;45.544;9.232;2024-01-15T15:46:06;17.50;56.20
40660;DHT22;26753;45.544;9.232;2024-01-15T15:48:35;17.10;57.30
40660;DHT22;26753;45.544;9.232;2024-01-15T15:51:01;16.70;58.40
40660;DHT22;26753;45.544;9.232;2024-01-15T15:53:32;16.30;59.20
40660;DHT22;26753;45.544;9.232;2024-01-15T15:55:58;16.00;60.00
40660;DHT22;26753;45.544;9.232;2024-01-15T15:58:24;16.00;60.70
40660;DHT22;26753;45.544;9.232;2024-01-15T16:00:59;15.80;61.30
40660;DHT22;26753;45.544;9.232;2024-01-15T16:03:25;15.70;62.40
40660;DHT22;26753;45.544;9.232;2024-01-15T16:05:51;15.40;62.40
40660;DHT22;26753;45.544;9.232;2024-01-15T16:08:17;15.40;62.90
40660;DHT22;26753;45.544;9.232;2024-01-15T16:11:03;15.30;63.40
40660;DHT22;26753;45.544;9.232;2024-01-15T16:13:29;15.10;63.50
40660;DHT22;26753;45.544;9.232;2024-01-15T16:15:55;14.90;64.10
40660;DHT22;26753;45.544;9.232;2024-01-15T16:18:23;14.90;64.60
40660;DHT22;26753;45.544;9.232;2024-01-15T16:20:49;14.80;65.30
40660;DHT22;26753;45.544;9.232;2024-01-15T16:23:15;14.60;65.90
40660;DHT22;26753;45.544;9.232;2024-01-15T16:25:41;15.10;67.00
40660;DHT22;26753;45.544;9.232;2024-01-15T16:28:07;14.00;67.20
40660;DHT22;26753;45.544;9.232;2024-01-15T16:30:33;12.90;67.00
40660;DHT22;26753;45.544;9.232;2024-01-15T16:32:59;13.90;68.20
40660;DHT22;26753;45.544;9.232;2024-01-15T16:35:25;11.90;68.50
40660;DHT22;26753;45.544;9.232;2024-01-15T16:37:50;13.50;70.50
40660;DHT22;26753;45.544;9.232;2024-01-15T16:40:16;13.70;70.80
40660;DHT22;26753;45.544;9.232;2024-01-15T16:42:42;14.10;72.30
40660;DHT22;26753;45.544;9.232;2024-01-15T16:45:29;12.20;72.20
40660;DHT22;26753;45.544;9.232;2024-01-15T16:48:02;13.30;73.60
40660;DHT22;26753;45.544;9.232;2024-01-15T16:50:38;14.20;76.90
40660;DHT22;26753;45.544;9.232;2024-01-15T16:53:04;13.50;77.70
40660;DHT22;26753;45.544;9.232;2024-01-15T16:55:32;13.30;77.60
40660;DHT22;26753;45.544;9.232;2024-01-15T16:57:58;12.20;77.20
40660;DHT22;26753;45.544;9.232;2024-01-15T17:00:23;14.00;78.70
40660;DHT22;26753;45.544;9.232;2024-01-15T17:02:51;11.70;79.00
40660;DHT22;26753;45.544;9.232;2024-01-15T17:05:17;10.70;78.40
40660;DHT22;26753;45.544;9.232;2024-01-15T17:07:44;13.30;80.10
40660;DHT22;26753;45.544;9.232;2024-01-15T17:12:37;11.70;82.00
40660;DHT22;26753;45.544;9.232;2024-01-15T17:15:05;12.00;82.40
40660;DHT22;26753;45.544;9.232;2024-01-15T17:17:31;14.40;85.00
40660;DHT22;26753;45.544;9.232;2024-01-15T17:19:57;12.50;85.40
40660;DHT22;26753;45.544;9.232;2024-01-15T17:22:23;13.40;87.30
40660;DHT22;26753;45.544;9.232;2024-01-15T17:24:49;12.60;86.30
40660;DHT22;26753;45.544;9.232;2024-01-15T17:27:15;9.90;86.70
40660;DHT22;26753;45.544;9.232;2024-01-15T17:29:41;11.90;89.30
40660;DHT22;26753;45.544;9.232;2024-01-15T17:32:07;11.80;89.90
40660;DHT22;26753;45.544;9.232;2024-01-15T17:34:33;13.80;91.10
40660;DHT22;26753;45.544;9.232;2024-01-15T17:36:59;13.10;91.70
40660;DHT22;26753;45.544;9.232;2024-01-15T17:39:25;11.50;92.00
40660;DHT22;26753;45.544;9.232;2024-01-15T17:41:50;12.00;92.90
40660;DHT22;26753;45.544;9.232;2024-01-15T17:44:16;9.90;93.30
40660;DHT22;26753;45.544;9.232;2024-01-15T17:49:11;11.70;95.10
40660;DHT22;26753;45.544;9.232;2024-01-15T17:51:37;11.70;95.00
40660;DHT22;26753;45.544;9.232;2024-01-15T17:54:13;11.20;95.40
40660;DHT22;26753;45.544;9.232;2024-01-15T17:56:38;11.00;96.30
40660;DHT22;26753;45.544;9.232;2024-01-15T18:03:59;11.50;96.70
40660;DHT22;26753;45.544;9.232;2024-01-15T18:06:28;11.00;97.50
40660;DHT22;26753;45.544;9.232;2024-01-15T18:08:58;10.00;97.60
40660;DHT22;26753;45.544;9.232;2024-01-15T18:11:24;10.30;98.40
40660;DHT22;26753;45.544;9.232;2024-01-15T18:16:25;9.70;99.90
40660;DHT22;26753;45.544;9.232;2024-01-15T18:18:51;9.60;99.90
40660;DHT22;26753;45.544;9.232;2024-01-15T18:26:42;11.20;99.90
40660;DHT22;26753;45.544;9.232;2024-01-15T18:29:11;13.10;99.90
40660;DHT22;26753;45.544;9.232;2024-01-15T18:36:38;10.20;99.90
40660;DHT22;26753;45.544;9.232;2024-01-15T18:41:32;12.20;99.90
40660;DHT22;26753;45.544;9.232;2024-01-15T18:49:03;10.00;99.90
40660;DHT22;26753;45.544;9.232;2024-01-15T18:51:48;12.40;99.90
40660;DHT22;26753;45.544;9.232;2024-01-15T18:57:01;11.20;99.90
40660;DHT22;26753;45.544;9.232;2024-01-15T20:23:39;9.90;99.90
40660;DHT22;26753;45.544;9.232;2024-01-15T20:31:15;8.40;99.90
40660;DHT22;26753;45.544;9.232;2024-01-15T20:33:44;8.50;99.90
40660;DHT22;26753;45.544;9.232;2024-01-15T20:36:13;8.70;99.90
40660;DHT22;26753;45.544;9.232;2024-01-15T20:43:34;5.90;99.90
40660;DHT22;26753;45.544;9.232;2024-01-15T20:48:30;10.20;99.90
40660;DHT22;26753;45.544;9.232;2024-01-15T20:58:21;6.60;99.90
